sensor_id;sensor_type;location;lat;lon;timestamp;temperature;humidity
51878;SHT31;37911;51.526;11.536;2024-02-14T00:01:56;3.62;85.15
51878;SHT31;37911;51.526;11.536;2024-02-14T00:04:59;3.59;85.30
51878;SHT31;37911;51.526;11.536;2024-02-14T00:08:04;3.63;85.51
51878;SHT31;37911;51.526;11.536;2024-02-14T00:11:08;3.59;85.61
51878;SHT31;37911;51.526;11.536;2024-02-14T00:14:11;3.58;85.66
51878;SHT31;37911;51.526;11.536;2024-02-14T00:17:17;3.59;85.78
51878;SHT31;37911;51.526;11.536;2024-02-14T00:20:23;3.58;85.98
51878;SHT31;37911;51.526;11.536;2024-02-14T00:23:27;3.55;86.13
51878;SHT31;37911;51.526;11.536;2024-02-14T00:26:30;3.51;86.02
51878;SHT31;37911;51.526;11.536;2024-02-14T00:29:34;3.54;86.14
51878;SHT31;37911;51.526;11.536;2024-02-14T00:32:40;3.55;85.96
51878;SHT31;37911;51.526;11.536;2024-02-14T00:35:44;3.60;85.98
51878;SHT31;37911;51.526;11.536;2024-02-14T00:38:47;3.65;85.64
51878;SHT31;37911;51.526;11.536;2024-02-14T00:41:51;3.70;85.28
51878;SHT31;37911;51.526;11.536;2024-02-14T00:44:56;3.73;85.47
51878;SHT31;37911;51.526;11.536;2024-02-14T00:48:02;3.79;85.08
51878;SHT31;37911;51.526;11.536;2024-02-14T00:51:07;3.83;85.14
51878;SHT31;37911;51.526;11.536;2024-02-14T00:54:10;3.85;85.27
51878;SHT31;37911;51.526;11.536;2024-02-14T00:57:14;3.90;85.26
51878;SHT31;37911;51.526;11.536;2024-02-14T01:00:18;3.94;85.00
51878;SHT31;37911;51.526;11.536;2024-02-14T01:03:24;3.96;84.88
51878;SHT31;37911;51.526;11.536;2024-02-14T01:06:27;4.04;84.48
51878;SHT31;37911;51.526;11.536;2024-02-14T01:09:32;4.07;84.14
51878;SHT31;37911;51.526;11.536;2024-02-14T01:12:36;4.14;84.10
51878;SHT31;37911;51.526;11.536;2024-02-14T01:15:40;4.17;83.98
51878;SHT31;37911;51.526;11.536;2024-02-14T01:18:46;4.21;84.03
51878;SHT31;37911;51.526;11.536;2024-02-14T01:21:50;4.33;83.61
51878;SHT31;37911;51.526;11.536;2024-02-14T01:24:53;4.38;83.47
51878;SHT31;37911;51.526;11.536;2024-02-14T01:27:59;4.42;83.31
51878;SHT31;37911;51.526;11.536;2024-02-14T01:31:03;4.47;83.32
51878;SHT31;37911;51.526;11.536;2024-02-14T01:34:08;4.51;83.18
51878;SHT31;37911;51.526;11.536;2024-02-14T01:37:12;4.55;83.15
51878;SHT31;37911;51.526;11.536;2024-02-14T01:40:15;4.73;82.21
51878;SHT31;37911;51.526;11.536;2024-02-14T01:43:19;4.65;82.29
51878;SHT31;37911;51.526;11.536;2024-02-14T01:46:23;4.64;82.55
51878;SHT31;37911;51.526;11.536;2024-02-14T01:49:29;4.62;82.54
51878;SHT31;37911;51.526;11.536;2024-02-14T01:52:33;4.62;82.70
51878;SHT31;37911;51.526;11.536;2024-02-14T01:55:37;4.68;82.16
51878;SHT31;37911;51.526;11.536;2024-02-14T01:58:41;4.64;82.42
51878;SHT31;37911;51.526;11.536;2024-02-14T02:01:45;4.58;82.66
51878;SHT31;37911;51.526;11.536;2024-02-14T02:04:52;4.61;82.86
51878;SHT31;37911;51.526;11.536;2024-02-14T02:07:55;4.60;82.84
51878;SHT31;37911;51.526;11.536;2024-02-14T02:10:59;4.55;83.18
51878;SHT31;37911;51.526;11.536;2024-02-14T02:14:02;4.58;83.13
51878;SHT31;37911;51.526;11.536;2024-02-14T02:17:06;4.62;82.62
51878;SHT31;37911;51.526;11.536;2024-02-14T02:20:15;4.61;82.77
51878;SHT31;37911;51.526;11.536;2024-02-14T02:23:22;4.60;82.96
51878;SHT31;37911;51.526;11.536;2024-02-14T02:26:26;4.57;82.99
51878;SHT31;37911;51.526;11.536;2024-02-14T02:29:29;4.61;82.84
51878;SHT31;37911;51.526;11.536;2024-02-14T02:32:32;4.57;83.09
51878;SHT31;37911;51.526;11.536;2024-02-14T02:35:37;4.58;83.20
51878;SHT31;37911;51.526;11.536;2024-02-14T02:38:42;4.55;83.44
51878;SHT31;37911;51.526;11.536;2024-02-14T02:41:46;4.52;83.60
51878;SHT31;37911;51.526;11.536;2024-02-14T02:44:51;4.47;84.02
51878;SHT31;37911;51.526;11.536;2024-02-14T02:47:54;4.41;84.59
51878;SHT31;37911;51.526;11.536;2024-02-14T02:50:57;4.38;84.86
51878;SHT31;37911;51.526;11.536;2024-02-14T02:54:03;4.33;85.24
51878;SHT31;37911;51.526;11.536;2024-02-14T02:57:08;4.28;85.38
51878;SHT31;37911;51.526;11.536;2024-02-14T03:00:12;4.25;85.74
51878;SHT31;37911;51.526;11.536;2024-02-14T03:03:16;4.25;85.92
51878;SHT31;37911;51.526;11.536;2024-02-14T03:06:20;4.20;86.19
51878;SHT31;37911;51.526;11.536;2024-02-14T03:09:26;4.24;86.23
51878;SHT31;37911;51.526;11.536;2024-02-14T03:12:29;4.24;86.32
51878;SHT31;37911;51.526;11.536;2024-02-14T03:15:33;4.24;86.38
51878;SHT31;37911;51.526;11.536;2024-02-14T03:18:36;4.27;86.62
51878;SHT31;37911;51.526;11.536;2024-02-14T03:21:39;4.21;86.66
51878;SHT31;37911;51.526;11.536;2024-02-14T03:24:46;4.24;86.72
51878;SHT31;37911;51.526;11.536;2024-02-14T03:27:49;4.27;86.65
51878;SHT31;37911;51.526;11.536;2024-02-14T03:30:53;4.28;86.68
51878;SHT31;37911;51.526;11.536;2024-02-14T03:33:57;4.24;86.59
51878;SHT31;37911;51.526;11.536;2024-02-14T03:37:01;4.27;86.67
51878;SHT31;37911;51.526;11.536;2024-02-14T03:40:08;4.24;86.86
51878;SHT31;37911;51.526;11.536;2024-02-14T03:43:12;4.25;86.88
51878;SHT31;37911;51.526;11.536;2024-02-14T03:46:16;4.27;86.95
51878;SHT31;37911;51.526;11.536;2024-02-14T03:49:21;4.25;87.18
51878;SHT31;37911;51.526;11.536;2024-02-14T03:52:26;4.24;87.06
51878;SHT31;37911;51.526;11.536;2024-02-14T03:55:35;4.31;87.06
51878;SHT31;37911;51.526;11.536;2024-02-14T03:58:38;4.31;87.12
51878;SHT31;37911;51.526;11.536;2024-02-14T04:01:44;4.33;87.19
51878;SHT31;37911;51.526;11.536;2024-02-14T04:04:47;4.31;87.24
51878;SHT31;37911;51.526;11.536;2024-02-14T04:07:51;4.30;87.30
51878;SHT31;37911;51.526;11.536;2024-02-14T04:10:57;4.30;87.19
51878;SHT31;37911;51.526;11.536;2024-02-14T04:14:00;4.28;87.17
51878;SHT31;37911;51.526;11.536;2024-02-14T04:17:04;4.28;87.22
51878;SHT31;37911;51.526;11.536;2024-02-14T04:20:09;4.28;87.20
51878;SHT31;37911;51.526;11.536;2024-02-14T04:23:12;4.31;87.21
51878;SHT31;37911;51.526;11.536;2024-02-14T04:26:21;4.34;87.12
51878;SHT31;37911;51.526;11.536;2024-02-14T04:29:24;4.42;86.63
51878;SHT31;37911;51.526;11.536;2024-02-14T04:32:30;4.47;86.08
51878;SHT31;37911;51.526;11.536;2024-02-14T04:35:33;4.61;84.90
51878;SHT31;37911;51.526;11.536;2024-02-14T04:38:37;4.72;84.41
51878;SHT31;37911;51.526;11.536;2024-02-14T04:41:44;4.82;83.82
51878;SHT31;37911;51.526;11.536;2024-02-14T04:44:47;4.83;83.86
51878;SHT31;37911;51.526;11.536;2024-02-14T04:47:50;4.86;83.37
51878;SHT31;37911;51.526;11.536;2024-02-14T04:50:53;4.88;83.26
51878;SHT31;37911;51.526;11.536;2024-02-14T04:53:57;4.97;82.73
51878;SHT31;37911;51.526;11.536;2024-02-14T04:57:04;5.03;82.58
51878;SHT31;37911;51.526;11.536;2024-02-14T05:00:08;5.08;82.22
51878;SHT31;37911;51.526;11.536;2024-02-14T05:03:12;5.13;81.96
51878;SHT31;37911;51.526;11.536;2024-02-14T05:06:16;5.15;81.96
51878;SHT31;37911;51.526;11.536;2024-02-14T05:09:20;5.16;82.18
51878;SHT31;37911;51.526;11.536;2024-02-14T05:12:26;5.19;82.16
51878;SHT31;37911;51.526;11.536;2024-02-14T05:15:29;5.27;81.60
51878;SHT31;37911;51.526;11.536;2024-02-14T05:18:32;5.40;81.02
51878;SHT31;37911;51.526;11.536;2024-02-14T05:21:36;5.53;80.89
51878;SHT31;37911;51.526;11.536;2024-02-14T05:24:39;5.43;81.17
51878;SHT31;37911;51.526;11.536;2024-02-14T05:27:45;5.47;81.04
51878;SHT31;37911;51.526;11.536;2024-02-14T05:30:49;5.47;81.26
51878;SHT31;37911;51.526;11.536;2024-02-14T05:33:52;5.57;80.79
51878;SHT31;37911;51.526;11.536;2024-02-14T05:36:56;5.61;80.76
51878;SHT31;37911;51.526;11.536;2024-02-14T05:39:59;5.66;80.59
51878;SHT31;37911;51.526;11.536;2024-02-14T05:43:05;5.56;81.27
51878;SHT31;37911;51.526;11.536;2024-02-14T05:46:10;5.51;81.89
51878;SHT31;37911;51.526;11.536;2024-02-14T05:49:13;5.60;81.94
51878;SHT31;37911;51.526;11.536;2024-02-14T05:52:16;5.58;82.33
51878;SHT31;37911;51.526;11.536;2024-02-14T05:55:20;5.56;82.55
51878;SHT31;37911;51.526;11.536;2024-02-14T05:58:26;5.54;82.72
51878;SHT31;37911;51.526;11.536;2024-02-14T06:01:29;5.53;82.64
51878;SHT31;37911;51.526;11.536;2024-02-14T06:04:32;5.67;82.02
51878;SHT31;37911;51.526;11.536;2024-02-14T06:07:36;5.60;82.46
51878;SHT31;37911;51.526;11.536;2024-02-14T06:10:40;5.67;82.49
51878;SHT31;37911;51.526;11.536;2024-02-14T06:13:46;5.75;82.03
51878;SHT31;37911;51.526;11.536;2024-02-14T06:16:50;5.80;82.20
51878;SHT31;37911;51.526;11.536;2024-02-14T06:19:53;5.87;81.84
51878;SHT31;37911;51.526;11.536;2024-02-14T06:22:57;5.95;81.45
51878;SHT31;37911;51.526;11.536;2024-02-14T06:26:00;5.97;81.50
51878;SHT31;37911;51.526;11.536;2024-02-14T06:29:07;5.97;81.43
51878;SHT31;37911;51.526;11.536;2024-02-14T06:32:12;6.11;80.98
51878;SHT31;37911;51.526;11.536;2024-02-14T06:35:16;6.04;81.43
51878;SHT31;37911;51.526;11.536;2024-02-14T06:38:21;6.12;81.29
51878;SHT31;37911;51.526;11.536;2024-02-14T06:41:24;6.11;81.20
51878;SHT31;37911;51.526;11.536;2024-02-14T06:44:30;6.11;81.28
51878;SHT31;37911;51.526;11.536;2024-02-14T06:47:33;6.17;81.00
51878;SHT31;37911;51.526;11.536;2024-02-14T06:50:37;6.18;81.22
51878;SHT31;37911;51.526;11.536;2024-02-14T06:53:40;6.18;81.19
51878;SHT31;37911;51.526;11.536;2024-02-14T06:56:43;6.17;81.31
51878;SHT31;37911;51.526;11.536;2024-02-14T06:59:49;6.14;81.71
51878;SHT31;37911;51.526;11.536;2024-02-14T07:02:53;6.18;81.63
51878;SHT31;37911;51.526;11.536;2024-02-14T07:05:56;6.11;82.01
51878;SHT31;37911;51.526;11.536;2024-02-14T07:08:59;6.14;82.26
51878;SHT31;37911;51.526;11.536;2024-02-14T07:12:03;6.20;82.37
51878;SHT31;37911;51.526;11.536;2024-02-14T07:15:09;6.25;82.16
51878;SHT31;37911;51.526;11.536;2024-02-14T07:18:12;6.26;82.40
51878;SHT31;37911;51.526;11.536;2024-02-14T07:21:16;6.35;82.22
51878;SHT31;37911;51.526;11.536;2024-02-14T07:24:19;6.33;82.62
51878;SHT31;37911;51.526;11.536;2024-02-14T07:27:22;6.36;82.70
51878;SHT31;37911;51.526;11.536;2024-02-14T07:30:30;6.41;82.84
51878;SHT31;37911;51.526;11.536;2024-02-14T07:33:33;6.48;82.87
51878;SHT31;37911;51.526;11.536;2024-02-14T07:36:37;6.46;83.10
51878;SHT31;37911;51.526;11.536;2024-02-14T07:39:41;6.57;82.51
51878;SHT31;37911;51.526;11.536;2024-02-14T07:42:47;6.59;82.77
51878;SHT31;37911;51.526;11.536;2024-02-14T07:45:53;6.57;83.04
51878;SHT31;37911;51.526;11.536;2024-02-14T07:48:56;6.65;82.77
51878;SHT31;37911;51.526;11.536;2024-02-14T07:51:59;6.71;82.71
51878;SHT31;37911;51.526;11.536;2024-02-14T07:55:03;6.71;82.92
51878;SHT31;37911;51.526;11.536;2024-02-14T07:58:07;6.79;82.71
51878;SHT31;37911;51.526;11.536;2024-02-14T08:01:13;6.89;82.17
51878;SHT31;37911;51.526;11.536;2024-02-14T08:04:17;7.04;81.66
51878;SHT31;37911;51.526;11.536;2024-02-14T08:07:20;7.16;81.36
51878;SHT31;37911;51.526;11.536;2024-02-14T08:10:23;7.13;81.59
51878;SHT31;37911;51.526;11.536;2024-02-14T08:13:27;7.23;81.32
51878;SHT31;37911;51.526;11.536;2024-02-14T08:16:33;7.32;81.30
51878;SHT31;37911;51.526;11.536;2024-02-14T08:19:36;7.34;81.39
51878;SHT31;37911;51.526;11.536;2024-02-14T08:22:40;7.50;80.62
51878;SHT31;37911;51.526;11.536;2024-02-14T08:25:43;7.52;80.53
51878;SHT31;37911;51.526;11.536;2024-02-14T08:28:46;7.51;80.78
51878;SHT31;37911;51.526;11.536;2024-02-14T08:31:52;7.58;80.61
51878;SHT31;37911;51.526;11.536;2024-02-14T08:34:56;7.62;80.88
51878;SHT31;37911;51.526;11.536;2024-02-14T08:37:59;7.62;80.82
51878;SHT31;37911;51.526;11.536;2024-02-14T08:41:03;7.71;80.84
51878;SHT31;37911;51.526;11.536;2024-02-14T08:44:06;7.78;80.42
51878;SHT31;37911;51.526;11.536;2024-02-14T08:47:12;7.79;80.78
51878;SHT31;37911;51.526;11.536;2024-02-14T08:50:16;7.86;80.66
51878;SHT31;37911;51.526;11.536;2024-02-14T08:53:20;7.89;80.01
51878;SHT31;37911;51.526;11.536;2024-02-14T08:56:23;7.86;80.23
51878;SHT31;37911;51.526;11.536;2024-02-14T08:59:28;7.89;80.79
51878;SHT31;37911;51.526;11.536;2024-02-14T09:02:34;7.81;80.94
51878;SHT31;37911;51.526;11.536;2024-02-14T09:05:37;7.86;81.02
51878;SHT31;37911;51.526;11.536;2024-02-14T09:08:41;7.81;81.20
51878;SHT31;37911;51.526;11.536;2024-02-14T09:11:46;7.83;81.37
51878;SHT31;37911;51.526;11.536;2024-02-14T09:14:49;7.82;81.46
51878;SHT31;37911;51.526;11.536;2024-02-14T09:17:55;7.82;81.75
51878;SHT31;37911;51.526;11.536;2024-02-14T09:21:00;7.83;81.82
51878;SHT31;37911;51.526;11.536;2024-02-14T09:24:05;7.82;81.94
51878;SHT31;37911;51.526;11.536;2024-02-14T09:27:09;7.89;81.86
51878;SHT31;37911;51.526;11.536;2024-02-14T09:30:12;7.92;81.89
51878;SHT31;37911;51.526;11.536;2024-02-14T09:33:20;7.95;81.96
51878;SHT31;37911;51.526;11.536;2024-02-14T09:36:23;7.96;81.91
51878;SHT31;37911;51.526;11.536;2024-02-14T09:39:27;8.02;81.81
51878;SHT31;37911;51.526;11.536;2024-02-14T09:42:36;8.03;81.96
51878;SHT31;37911;51.526;11.536;2024-02-14T09:45:42;8.10;82.10
51878;SHT31;37911;51.526;11.536;2024-02-14T09:48:48;8.19;81.77
51878;SHT31;37911;51.526;11.536;2024-02-14T09:51:53;8.28;81.70
51878;SHT31;37911;51.526;11.536;2024-02-14T09:54:57;8.25;81.84
51878;SHT31;37911;51.526;11.536;2024-02-14T09:58:01;8.29;81.95
51878;SHT31;37911;51.526;11.536;2024-02-14T10:01:07;8.30;81.98
51878;SHT31;37911;51.526;11.536;2024-02-14T10:04:13;8.34;81.93
51878;SHT31;37911;51.526;11.536;2024-02-14T10:07:19;8.49;81.67
51878;SHT31;37911;51.526;11.536;2024-02-14T10:10:22;8.50;81.60
51878;SHT31;37911;51.526;11.536;2024-02-14T10:13:27;8.60;81.62
51878;SHT31;37911;51.526;11.536;2024-02-14T10:16:32;8.70;81.47
51878;SHT31;37911;51.526;11.536;2024-02-14T10:19:38;8.80;81.35
51878;SHT31;37911;51.526;11.536;2024-02-14T10:22:41;8.89;80.94
51878;SHT31;37911;51.526;11.536;2024-02-14T10:25:47;9.01;80.60
51878;SHT31;37911;51.526;11.536;2024-02-14T10:28:50;9.05;81.02
51878;SHT31;37911;51.526;11.536;2024-02-14T10:31:57;9.24;80.48
51878;SHT31;37911;51.526;11.536;2024-02-14T10:35:04;9.62;79.28
51878;SHT31;37911;51.526;11.536;2024-02-14T10:38:09;9.86;78.62
51878;SHT31;37911;51.526;11.536;2024-02-14T10:41:13;10.06;78.22
51878;SHT31;37911;51.526;11.536;2024-02-14T10:44:16;10.33;77.30
51878;SHT31;37911;51.526;11.536;2024-02-14T10:47:20;10.48;76.75
51878;SHT31;37911;51.526;11.536;2024-02-14T10:50:32;10.54;76.80
51878;SHT31;37911;51.526;11.536;2024-02-14T10:53:39;10.64;76.78
51878;SHT31;37911;51.526;11.536;2024-02-14T10:56:49;10.57;76.95
51878;SHT31;37911;51.526;11.536;2024-02-14T10:59:53;10.54;76.77
51878;SHT31;37911;51.526;11.536;2024-02-14T11:02:58;10.37;77.43
51878;SHT31;37911;51.526;11.536;2024-02-14T11:06:05;10.36;78.13
51878;SHT31;37911;51.526;11.536;2024-02-14T11:09:11;10.43;78.05
51878;SHT31;37911;51.526;11.536;2024-02-14T11:12:15;10.54;77.58
51878;SHT31;37911;51.526;11.536;2024-02-14T11:15:20;10.53;77.87
51878;SHT31;37911;51.526;11.536;2024-02-14T11:18:25;10.61;77.78
51878;SHT31;37911;51.526;11.536;2024-02-14T11:21:35;10.89;76.92
51878;SHT31;37911;51.526;11.536;2024-02-14T11:24:38;11.19;76.45
51878;SHT31;37911;51.526;11.536;2024-02-14T11:27:45;11.66;74.94
51878;SHT31;37911;51.526;11.536;2024-02-14T11:30:49;12.05;74.32
51878;SHT31;37911;51.526;11.536;2024-02-14T11:33:55;12.05;72.96
51878;SHT31;37911;51.526;11.536;2024-02-14T11:37:01;11.73;73.62
51878;SHT31;37911;51.526;11.536;2024-02-14T11:40:06;11.47;74.19
51878;SHT31;37911;51.526;11.536;2024-02-14T11:43:11;11.32;75.26
51878;SHT31;37911;51.526;11.536;2024-02-14T11:46:15;11.35;75.83
51878;SHT31;37911;51.526;11.536;2024-02-14T11:49:18;11.59;74.94
51878;SHT31;37911;51.526;11.536;2024-02-14T11:52:25;11.80;74.62
51878;SHT31;37911;51.526;11.536;2024-02-14T11:55:28;11.70;74.46
51878;SHT31;37911;51.526;11.536;2024-02-14T11:58:33;11.62;75.10
51878;SHT31;37911;51.526;11.536;2024-02-14T12:01:38;11.55;75.27
51878;SHT31;37911;51.526;11.536;2024-02-14T12:04:42;11.47;75.29
51878;SHT31;37911;51.526;11.536;2024-02-14T12:07:48;11.40;75.84
51878;SHT31;37911;51.526;11.536;2024-02-14T12:10:51;11.35;75.70
51878;SHT31;37911;51.526;11.536;2024-02-14T12:13:55;11.19;76.56
51878;SHT31;37911;51.526;11.536;2024-02-14T12:16:59;11.09;77.07
51878;SHT31;37911;51.526;11.536;2024-02-14T12:20:08;10.91;77.18
51878;SHT31;37911;51.526;11.536;2024-02-14T12:23:18;10.87;77.84
51878;SHT31;37911;51.526;11.536;2024-02-14T12:26:22;10.77;78.11
51878;SHT31;37911;51.526;11.536;2024-02-14T12:29:26;10.65;78.51
51878;SHT31;37911;51.526;11.536;2024-02-14T12:32:30;10.65;78.52
51878;SHT31;37911;51.526;11.536;2024-02-14T12:35:34;10.54;79.06
51878;SHT31;37911;51.526;11.536;2024-02-14T12:38:45;10.55;79.06
51878;SHT31;37911;51.526;11.536;2024-02-14T12:41:48;10.61;78.86
51878;SHT31;37911;51.526;11.536;2024-02-14T12:44:54;10.54;79.30
51878;SHT31;37911;51.526;11.536;2024-02-14T12:47:57;10.51;79.46
51878;SHT31;37911;51.526;11.536;2024-02-14T12:51:01;10.51;79.40
51878;SHT31;37911;51.526;11.536;2024-02-14T12:54:07;10.47;79.86
51878;SHT31;37911;51.526;11.536;2024-02-14T12:57:12;10.50;79.81
51878;SHT31;37911;51.526;11.536;2024-02-14T13:00:16;10.41;80.39
51878;SHT31;37911;51.526;11.536;2024-02-14T13:03:19;10.40;80.33
51878;SHT31;37911;51.526;11.536;2024-02-14T13:06:23;10.41;80.20
51878;SHT31;37911;51.526;11.536;2024-02-14T13:09:29;10.44;80.38
51878;SHT31;37911;51.526;11.536;2024-02-14T13:12:32;10.41;80.51
51878;SHT31;37911;51.526;11.536;2024-02-14T13:15:36;10.41;80.40
51878;SHT31;37911;51.526;11.536;2024-02-14T13:18:40;10.41;80.46
51878;SHT31;37911;51.526;11.536;2024-02-14T13:21:44;10.36;80.76
51878;SHT31;37911;51.526;11.536;2024-02-14T13:24:50;10.34;80.84
51878;SHT31;37911;51.526;11.536;2024-02-14T13:27:54;10.38;80.97
51878;SHT31;37911;51.526;11.536;2024-02-14T13:30:59;10.43;81.02
51878;SHT31;37911;51.526;11.536;2024-02-14T13:34:02;10.41;81.24
51878;SHT31;37911;51.526;11.536;2024-02-14T13:37:06;10.37;81.41
51878;SHT31;37911;51.526;11.536;2024-02-14T13:40:12;10.29;81.61
51878;SHT31;37911;51.526;11.536;2024-02-14T13:43:16;10.29;81.71
51878;SHT31;37911;51.526;11.536;2024-02-14T13:46:20;10.27;81.87
51878;SHT31;37911;51.526;11.536;2024-02-14T13:49:26;10.24;81.90
51878;SHT31;37911;51.526;11.536;2024-02-14T13:52:29;10.17;82.39
51878;SHT31;37911;51.526;11.536;2024-02-14T13:55:36;10.13;82.72
51878;SHT31;37911;51.526;11.536;2024-02-14T13:58:40;10.14;82.58
51878;SHT31;37911;51.526;11.536;2024-02-14T14:01:45;10.13;82.78
51878;SHT31;37911;51.526;11.536;2024-02-14T14:04:48;10.12;83.13
51878;SHT31;37911;51.526;11.536;2024-02-14T14:07:53;10.12;83.16
51878;SHT31;37911;51.526;11.536;2024-02-14T14:11:00;10.20;82.93
51878;SHT31;37911;51.526;11.536;2024-02-14T14:14:03;10.16;83.12
51878;SHT31;37911;51.526;11.536;2024-02-14T14:17:08;10.16;83.07
51878;SHT31;37911;51.526;11.536;2024-02-14T14:20:11;10.13;83.28
51878;SHT31;37911;51.526;11.536;2024-02-14T14:23:15;10.17;83.14
51878;SHT31;37911;51.526;11.536;2024-02-14T14:26:21;10.14;83.51
51878;SHT31;37911;51.526;11.536;2024-02-14T14:29:25;10.12;83.44
51878;SHT31;37911;51.526;11.536;2024-02-14T14:32:28;10.20;83.17
51878;SHT31;37911;51.526;11.536;2024-02-14T14:35:31;10.17;83.46
51878;SHT31;37911;51.526;11.536;2024-02-14T14:38:36;10.13;83.73
51878;SHT31;37911;51.526;11.536;2024-02-14T14:41:43;10.16;83.88
51878;SHT31;37911;51.526;11.536;2024-02-14T14:44:47;10.12;84.08
51878;SHT31;37911;51.526;11.536;2024-02-14T14:47:50;10.12;84.06
51878;SHT31;37911;51.526;11.536;2024-02-14T14:50:54;10.09;84.31
51878;SHT31;37911;51.526;11.536;2024-02-14T14:53:57;10.07;84.26
51878;SHT31;37911;51.526;11.536;2024-02-14T14:57:03;10.07;84.15
51878;SHT31;37911;51.526;11.536;2024-02-14T15:00:13;10.10;83.76
51878;SHT31;37911;51.526;11.536;2024-02-14T15:03:17;10.00;84.09
51878;SHT31;37911;51.526;11.536;2024-02-14T15:06:20;10.07;84.07
51878;SHT31;37911;51.526;11.536;2024-02-14T15:09:23;10.06;83.67
51878;SHT31;37911;51.526;11.536;2024-02-14T15:12:29;10.12;83.47
51878;SHT31;37911;51.526;11.536;2024-02-14T15:15:36;10.07;83.69
51878;SHT31;37911;51.526;11.536;2024-02-14T15:18:39;10.07;83.64
51878;SHT31;37911;51.526;11.536;2024-02-14T15:21:44;10.03;83.91
51878;SHT31;37911;51.526;11.536;2024-02-14T15:24:47;9.97;84.02
51878;SHT31;37911;51.526;11.536;2024-02-14T15:27:54;9.97;84.03
51878;SHT31;37911;51.526;11.536;2024-02-14T15:30:57;9.99;84.23
51878;SHT31;37911;51.526;11.536;2024-02-14T15:34:13;9.97;84.32
51878;SHT31;37911;51.526;11.536;2024-02-14T15:37:17;9.99;84.21
51878;SHT31;37911;51.526;11.536;2024-02-14T15:40:20;9.96;84.54
51878;SHT31;37911;51.526;11.536;2024-02-14T15:43:26;9.87;84.51
51878;SHT31;37911;51.526;11.536;2024-02-14T15:46:30;9.90;84.59
51878;SHT31;37911;51.526;11.536;2024-02-14T15:49:34;9.93;84.53
51878;SHT31;37911;51.526;11.536;2024-02-14T15:52:38;9.89;84.89
51878;SHT31;37911;51.526;11.536;2024-02-14T15:55:42;9.82;85.17
51878;SHT31;37911;51.526;11.536;2024-02-14T15:58:49;9.78;85.35
51878;SHT31;37911;51.526;11.536;2024-02-14T16:01:52;9.82;84.99
51878;SHT31;37911;51.526;11.536;2024-02-14T16:04:56;9.80;85.20
51878;SHT31;37911;51.526;11.536;2024-02-14T16:07:59;9.76;85.18
51878;SHT31;37911;51.526;11.536;2024-02-14T16:11:03;9.73;85.24
51878;SHT31;37911;51.526;11.536;2024-02-14T16:14:09;9.68;85.62
51878;SHT31;37911;51.526;11.536;2024-02-14T16:17:12;9.65;85.70
51878;SHT31;37911;51.526;11.536;2024-02-14T16:20:15;9.66;85.70
51878;SHT31;37911;51.526;11.536;2024-02-14T16:23:20;9.60;85.84
51878;SHT31;37911;51.526;11.536;2024-02-14T16:26:23;9.58;85.97
51878;SHT31;37911;51.526;11.536;2024-02-14T16:29:29;9.60;86.02
51878;SHT31;37911;51.526;11.536;2024-02-14T16:32:33;9.58;85.96
51878;SHT31;37911;51.526;11.536;2024-02-14T16:35:36;9.56;86.04
51878;SHT31;37911;51.526;11.536;2024-02-14T16:38:40;9.69;85.62
51878;SHT31;37911;51.526;11.536;2024-02-14T16:41:43;9.63;85.72
51878;SHT31;37911;51.526;11.536;2024-02-14T16:44:49;9.62;85.72
51878;SHT31;37911;51.526;11.536;2024-02-14T16:47:52;9.66;85.69
51878;SHT31;37911;51.526;11.536;2024-02-14T16:50:56;9.68;85.51
51878;SHT31;37911;51.526;11.536;2024-02-14T16:53:59;9.69;85.44
51878;SHT31;37911;51.526;11.536;2024-02-14T16:57:03;9.76;85.12
51878;SHT31;37911;51.526;11.536;2024-02-14T17:00:13;9.69;85.41
51878;SHT31;37911;51.526;11.536;2024-02-14T17:03:16;9.73;85.42
51878;SHT31;37911;51.526;11.536;2024-02-14T17:06:20;9.70;85.55
51878;SHT31;37911;51.526;11.536;2024-02-14T17:09:25;9.65;85.87
51878;SHT31;37911;51.526;11.536;2024-02-14T17:12:28;9.63;85.81
51878;SHT31;37911;51.526;11.536;2024-02-14T17:15:34;9.68;85.79
51878;SHT31;37911;51.526;11.536;2024-02-14T17:18:37;9.66;85.99
51878;SHT31;37911;51.526;11.536;2024-02-14T17:21:41;9.62;86.00
51878;SHT31;37911;51.526;11.536;2024-02-14T17:24:45;9.56;86.24
51878;SHT31;37911;51.526;11.536;2024-02-14T17:27:49;9.60;86.14
51878;SHT31;37911;51.526;11.536;2024-02-14T17:30:55;9.52;86.34
51878;SHT31;37911;51.526;11.536;2024-02-14T17:33:58;9.53;86.42
51878;SHT31;37911;51.526;11.536;2024-02-14T17:37:03;9.51;86.51
51878;SHT31;37911;51.526;11.536;2024-02-14T17:40:08;9.51;86.60
51878;SHT31;37911;51.526;11.536;2024-02-14T17:43:11;9.45;86.56
51878;SHT31;37911;51.526;11.536;2024-02-14T17:46:17;9.43;86.65
51878;SHT31;37911;51.526;11.536;2024-02-14T17:49:21;9.45;86.67
51878;SHT31;37911;51.526;11.536;2024-02-14T17:52:25;9.49;86.49
51878;SHT31;37911;51.526;11.536;2024-02-14T17:55:28;9.49;86.50
51878;SHT31;37911;51.526;11.536;2024-02-14T17:58:33;9.51;86.46
51878;SHT31;37911;51.526;11.536;2024-02-14T18:01:39;9.48;86.29
51878;SHT31;37911;51.526;11.536;2024-02-14T18:04:42;9.52;86.26
51878;SHT31;37911;51.526;11.536;2024-02-14T18:07:46;9.53;86.08
51878;SHT31;37911;51.526;11.536;2024-02-14T18:10:49;9.51;86.17
51878;SHT31;37911;51.526;11.536;2024-02-14T18:13:54;9.53;86.17
51878;SHT31;37911;51.526;11.536;2024-02-14T18:17:00;9.46;86.32
51878;SHT31;37911;51.526;11.536;2024-02-14T18:20:05;9.49;86.14
51878;SHT31;37911;51.526;11.536;2024-02-14T18:23:09;9.48;86.32
51878;SHT31;37911;51.526;11.536;2024-02-14T18:26:12;9.45;86.32
51878;SHT31;37911;51.526;11.536;2024-02-14T18:29:15;9.52;86.15
51878;SHT31;37911;51.526;11.536;2024-02-14T18:32:21;9.49;86.21
51878;SHT31;37911;51.526;11.536;2024-02-14T18:35:24;9.43;86.38
51878;SHT31;37911;51.526;11.536;2024-02-14T18:38:28;9.49;86.22
51878;SHT31;37911;51.526;11.536;2024-02-14T18:41:32;9.53;86.12
51878;SHT31;37911;51.526;11.536;2024-02-14T18:44:37;9.55;86.11
51878;SHT31;37911;51.526;11.536;2024-02-14T18:47:44;9.49;86.25
51878;SHT31;37911;51.526;11.536;2024-02-14T18:50:48;9.48;86.35
51878;SHT31;37911;51.526;11.536;2024-02-14T18:53:52;9.51;86.41
51878;SHT31;37911;51.526;11.536;2024-02-14T18:56:56;9.58;86.30
51878;SHT31;37911;51.526;11.536;2024-02-14T18:59:59;9.49;86.62
51878;SHT31;37911;51.526;11.536;2024-02-14T19:03:07;9.58;86.47
51878;SHT31;37911;51.526;11.536;2024-02-14T19:06:11;9.52;86.59
51878;SHT31;37911;51.526;11.536;2024-02-14T19:09:16;9.52;86.82
51878;SHT31;37911;51.526;11.536;2024-02-14T19:12:19;9.43;87.13
51878;SHT31;37911;51.526;11.536;2024-02-14T19:15:23;9.36;87.53
51878;SHT31;37911;51.526;11.536;2024-02-14T19:18:29;9.49;87.33
51878;SHT31;37911;51.526;11.536;2024-02-14T19:21:33;9.49;87.38